createdAt,value
2018-11-01T00:01:04.120Z,4.47
2018-11-01T00:03:32.492Z,5.63
2018-11-01T00:06:00.149Z,4.70
2018-11-01T00:08:27.955Z,5.97
2018-11-01T00:10:55.705Z,6.13
2018-11-01T00:13:23.501Z,6.50
2018-11-01T00:15:51.322Z,5.60
2018-11-01T00:18:18.934Z,5.20
2018-11-01T00:20:46.658Z,4.23
2018-11-01T00:23:14.380Z,5.00
2018-11-01T00:25:42.249Z,4.73
2018-11-01T00:28:10.022Z,5.17
2018-11-01T00:30:37.778Z,5.50
2018-11-01T00:33:05.680Z,7.13
2018-11-01T00:35:33.390Z,5.30
2018-11-01T00:38:01.141Z,4.03
2018-11-01T00:40:28.857Z,4.07
2018-11-01T00:42:56.494Z,5.80
2018-11-01T00:45:24.238Z,6.70
2018-11-01T00:47:52.049Z,6.27
2018-11-01T00:50:19.891Z,4.00
2018-11-01T00:52:49.494Z,6.90
2018-11-01T00:55:17.214Z,6.53
2018-11-01T00:57:44.984Z,5.30
2018-11-01T01:00:14.281Z,6.17
2018-11-01T01:02:42.976Z,5.23
2018-11-01T01:05:11.346Z,5.40
2018-11-01T01:07:39.221Z,5.33
2018-11-01T01:10:12.224Z,5.10
2018-11-01T01:12:40.296Z,5.57
2018-11-01T01:15:08.740Z,6.90
2018-11-01T01:17:36.471Z,6.63
2018-11-01T01:20:06.964Z,6.37
2018-11-01T01:22:34.722Z,8.30
2018-11-01T01:25:02.497Z,5.43
2018-11-01T01:27:30.286Z,5.57
2018-11-01T01:29:58.105Z,4.67
2018-11-01T01:32:25.876Z,4.50
2018-11-01T01:34:53.668Z,6.07
2018-11-01T01:37:21.426Z,4.67
2018-11-01T01:39:49.267Z,5.43
2018-11-01T01:42:16.998Z,5.40
2018-11-01T01:44:44.757Z,5.80
2018-11-01T01:47:12.506Z,4.60
2018-11-01T01:49:40.253Z,5.90
2018-11-01T01:52:08.001Z,4.33
2018-11-01T01:54:35.799Z,7.17
2018-11-01T01:57:03.620Z,5.40
2018-11-01T01:59:31.398Z,4.83
2018-11-01T02:01:59.178Z,5.03
2018-11-01T02:04:27.007Z,4.63
2018-11-01T02:06:54.778Z,7.00
2018-11-01T02:09:23.122Z,3.83
2018-11-01T02:11:51.024Z,4.20
2018-11-01T02:14:18.738Z,3.83
2018-11-01T02:16:46.569Z,6.17
2018-11-01T02:19:14.358Z,3.60
2018-11-01T02:21:42.351Z,10.63
2018-11-01T02:24:10.144Z,3.23
2018-11-01T02:26:37.889Z,4.03
2018-11-01T02:29:05.711Z,3.97
2018-11-01T02:31:33.453Z,4.37
2018-11-01T02:34:01.209Z,7.67
2018-11-01T02:36:29.437Z,4.73
2018-11-01T02:38:57.229Z,5.33
2018-11-01T02:41:24.864Z,4.50
2018-11-01T02:43:54.428Z,6.13
2018-11-01T02:46:22.163Z,4.30
2018-11-01T02:48:49.861Z,4.77
2018-11-01T02:51:17.608Z,4.27
2018-11-01T02:53:45.406Z,4.63
2018-11-01T02:56:13.181Z,3.27
2018-11-01T02:58:40.973Z,4.20
2018-11-01T03:01:12.447Z,4.43
2018-11-01T03:03:40.172Z,3.77
2018-11-01T03:06:07.935Z,3.83
2018-11-01T03:08:36.176Z,3.73
2018-11-01T03:11:04.104Z,4.63
2018-11-01T03:13:31.856Z,4.53
2018-11-01T03:15:59.619Z,3.90
2018-11-01T03:18:27.381Z,3.70
2018-11-01T03:20:55.147Z,3.03
2018-11-01T03:23:22.949Z,3.93
2018-11-01T03:25:50.688Z,4.37
2018-11-01T03:28:18.418Z,4.40
2018-11-01T03:30:46.198Z,3.80
2018-11-01T03:33:13.948Z,3.77
2018-11-01T03:35:41.824Z,3.80
2018-11-01T03:38:09.546Z,5.73
2018-11-01T03:40:37.301Z,3.47
2018-11-01T03:43:05.140Z,3.93
2018-11-01T03:45:32.931Z,5.37
2018-11-01T03:48:00.697Z,4.37
2018-11-01T03:50:30.598Z,3.67
2018-11-01T03:52:58.363Z,4.17
2018-11-01T03:55:26.155Z,3.43
2018-11-01T03:57:53.865Z,3.23
2018-11-01T04:00:21.620Z,3.80
2018-11-01T04:02:49.360Z,3.57
2018-11-01T04:05:17.107Z,3.13
2018-11-01T04:07:44.866Z,3.50
2018-11-01T04:10:12.824Z,3.67
2018-11-01T04:12:40.590Z,6.37
2018-11-01T04:15:10.458Z,3.80
2018-11-01T04:17:38.164Z,4.03
2018-11-01T04:20:07.144Z,4.97
2018-11-01T04:22:34.898Z,4.20
2018-11-01T04:25:02.650Z,5.37
2018-11-01T04:27:30.402Z,6.50
2018-11-01T04:29:58.106Z,4.07
2018-11-01T04:32:27.801Z,5.67
2018-11-01T04:34:55.624Z,4.90
2018-11-01T04:37:23.366Z,6.77
2018-11-01T04:39:51.068Z,4.60
2018-11-01T04:42:18.837Z,4.30
2018-11-01T04:44:46.622Z,5.10
2018-11-01T04:47:14.474Z,5.90
2018-11-01T04:49:42.217Z,5.60
2018-11-01T04:52:10.043Z,4.17
2018-11-01T04:54:37.789Z,3.40
2018-11-01T04:57:05.629Z,3.83
2018-11-01T04:59:33.433Z,4.10
2018-11-01T05:02:01.202Z,4.53
2018-11-01T05:04:28.921Z,3.90
2018-11-01T05:06:56.706Z,3.73
2018-11-01T05:09:24.452Z,3.53
2018-11-01T05:11:52.219Z,4.57
2018-11-01T05:14:19.958Z,4.63
2018-11-01T05:16:47.739Z,5.10
2018-11-01T05:19:15.492Z,3.27
2018-11-01T05:21:43.537Z,4.50
2018-11-01T05:24:11.321Z,5.07
2018-11-01T05:26:39.085Z,4.57
2018-11-01T05:29:06.692Z,3.63
2018-11-01T05:31:34.474Z,5.40
2018-11-01T05:34:02.229Z,4.30
2018-11-01T05:36:29.979Z,3.87
2018-11-01T05:38:57.871Z,5.10
2018-11-01T05:41:25.720Z,4.17
2018-11-01T05:43:53.486Z,5.23
2018-11-01T05:46:21.295Z,4.77
2018-11-01T05:48:49.114Z,3.17
2018-11-01T05:51:16.850Z,4.10
2018-11-01T05:53:44.596Z,3.47
2018-11-01T05:56:12.418Z,4.23
2018-11-01T05:58:40.172Z,6.57
2018-11-01T06:01:11.624Z,4.70
2018-11-01T06:03:39.750Z,3.80
2018-11-01T06:06:07.554Z,3.87
2018-11-01T06:08:37.447Z,3.87
2018-11-01T06:11:05.421Z,4.00
2018-11-01T06:13:33.158Z,4.77
2018-11-01T06:16:01.012Z,3.43
2018-11-01T06:18:29.000Z,3.07
2018-11-01T06:20:56.731Z,3.57
2018-11-01T06:23:24.537Z,3.83
2018-11-01T06:25:52.388Z,3.37
2018-11-01T06:28:20.219Z,3.30
2018-11-01T06:30:48.020Z,6.17
2018-11-01T06:33:16.766Z,3.50
2018-11-01T06:35:48.949Z,2.80
2018-11-01T06:38:16.977Z,3.47
2018-11-01T06:40:44.765Z,3.30
2018-11-01T06:43:13.167Z,4.17
2018-11-01T06:45:43.159Z,3.70
2018-11-01T06:48:11.566Z,3.83
2018-11-01T06:50:39.433Z,4.10
2018-11-01T06:53:07.291Z,4.80
2018-11-01T06:55:35.163Z,3.83
2018-11-01T06:58:02.860Z,4.60
2018-11-01T07:00:31.403Z,4.30
2018-11-01T07:02:59.372Z,4.10
2018-11-01T07:05:27.256Z,7.37
2018-11-01T07:07:55.956Z,3.90
2018-11-01T07:10:24.401Z,3.67
2018-11-01T07:12:52.291Z,4.13
2018-11-01T07:15:20.079Z,4.43
2018-11-01T07:17:48.540Z,4.90
2018-11-01T07:20:17.769Z,4.73
2018-11-01T07:22:49.184Z,4.20
2018-11-01T07:25:17.858Z,3.63
2018-11-01T07:27:51.248Z,4.27
2018-11-01T07:30:21.442Z,3.97
2018-11-01T07:32:51.535Z,4.30
2018-11-01T07:35:20.876Z,3.43
2018-11-01T07:37:49.145Z,4.90
2018-11-01T07:40:18.900Z,5.70
2018-11-01T07:42:47.783Z,4.10
2018-11-01T07:45:16.645Z,3.50
2018-11-01T07:47:46.744Z,3.20
2018-11-01T07:50:16.367Z,3.60
2018-11-01T07:52:45.328Z,4.47
2018-11-01T07:55:16.320Z,4.27
2018-11-01T07:57:45.193Z,3.50
2018-11-01T08:00:16.420Z,3.03
2018-11-01T08:02:45.424Z,5.40
2018-11-01T08:05:14.591Z,4.37
2018-11-01T08:07:45.538Z,2.77
2018-11-01T08:10:16.338Z,4.17
2018-11-01T08:12:44.975Z,3.53
2018-11-01T08:15:15.109Z,3.23
2018-11-01T08:17:43.777Z,5.20
2018-11-01T08:20:14.269Z,2.97
2018-11-01T08:22:43.289Z,3.27
2018-11-01T08:25:13.040Z,4.40
2018-11-01T08:27:42.796Z,3.33
2018-11-01T08:30:14.566Z,4.73
2018-11-01T08:32:42.959Z,3.20
2018-11-01T08:35:12.842Z,4.07
2018-11-01T08:37:42.150Z,4.13
2018-11-01T08:40:11.406Z,3.03
2018-11-01T08:42:40.720Z,4.23
2018-11-01T08:45:11.304Z,3.50
2018-11-01T08:47:40.143Z,5.67
2018-11-01T08:50:10.461Z,3.13
2018-11-01T08:52:40.537Z,4.17
2018-11-01T08:55:09.543Z,3.30
2018-11-01T08:57:38.062Z,3.33
2018-11-01T09:00:08.405Z,5.07
2018-11-01T09:02:38.116Z,3.80
2018-11-01T09:05:08.068Z,3.17
2018-11-01T09:07:36.308Z,3.50
2018-11-01T09:10:06.141Z,3.37
2018-11-01T09:12:35.088Z,3.20
2018-11-01T09:15:03.402Z,3.27
2018-11-01T09:17:32.724Z,4.23
2018-11-01T09:20:02.480Z,2.93
2018-11-01T09:22:30.418Z,3.80
2018-11-01T09:24:58.841Z,3.13
2018-11-01T09:27:27.547Z,5.83
2018-11-01T09:29:57.637Z,3.30
2018-11-01T09:32:25.585Z,3.63
2018-11-01T09:34:55.031Z,3.57
2018-11-01T09:37:23.477Z,2.93
2018-11-01T09:39:52.720Z,3.43
2018-11-01T09:42:22.062Z,4.33
2018-11-01T09:44:53.209Z,4.37
2018-11-01T09:47:21.924Z,4.00
2018-11-01T09:49:53.186Z,3.80
2018-11-01T09:52:21.754Z,4.13
2018-11-01T09:54:50.287Z,3.63
2018-11-01T09:57:20.180Z,5.37
2018-11-01T09:59:49.709Z,3.27
2018-11-01T10:02:20.344Z,4.07
2018-11-01T10:04:49.150Z,4.30
2018-11-01T10:07:17.557Z,4.13
2018-11-01T10:09:47.009Z,3.27
2018-11-01T10:12:19.798Z,3.57
2018-11-01T10:14:47.708Z,4.70
2018-11-01T10:17:16.588Z,3.40
2018-11-01T10:19:45.465Z,3.27
2018-11-01T10:22:14.307Z,5.63
2018-11-01T10:24:44.414Z,3.60
2018-11-01T10:27:19.521Z,4.43
2018-11-01T10:29:43.066Z,3.53
2018-11-01T10:32:12.667Z,2.80
2018-11-01T10:34:41.936Z,3.40
2018-11-01T10:37:12.166Z,3.40
2018-11-01T10:39:41.722Z,4.07
2018-11-01T10:42:10.462Z,4.73
2018-11-01T10:44:39.920Z,5.10
2018-11-01T10:47:08.488Z,3.40
2018-11-01T10:49:37.906Z,5.40
2018-11-01T10:52:07.560Z,3.30
2018-11-01T10:54:38.152Z,3.53
2018-11-01T10:57:06.729Z,5.73
2018-11-01T10:59:36.037Z,4.00
2018-11-01T11:02:10.057Z,5.57
2018-11-01T11:04:38.705Z,4.63
2018-11-01T11:07:08.188Z,6.23
2018-11-01T11:09:37.563Z,4.00
2018-11-01T11:12:07.275Z,3.60
2018-11-01T11:14:37.828Z,4.87
2018-11-01T11:17:05.817Z,3.60
2018-11-01T11:19:34.169Z,4.10
2018-11-01T11:22:02.025Z,3.97
2018-11-01T11:24:29.860Z,3.70
2018-11-01T11:26:58.298Z,4.40
2018-11-01T11:29:27.429Z,5.57
2018-11-01T11:31:56.656Z,3.87
2018-11-01T11:34:24.777Z,3.67
2018-11-01T11:36:52.527Z,4.80
2018-11-01T11:39:20.542Z,4.43
2018-11-01T11:41:49.624Z,3.63
2018-11-01T11:44:17.764Z,3.80
2018-11-01T11:46:47.297Z,4.60
2018-11-01T11:49:15.475Z,4.20
2018-11-01T11:51:44.271Z,4.30
2018-11-01T11:54:13.033Z,4.73
2018-11-01T11:56:40.872Z,4.00
2018-11-01T11:59:08.849Z,4.90
2018-11-01T12:01:37.232Z,3.70
2018-11-01T12:04:06.061Z,3.73
2018-11-01T12:06:34.015Z,3.77
2018-11-01T12:09:01.831Z,4.77
2018-11-01T12:11:31.665Z,3.87
2018-11-01T12:13:59.541Z,4.50
2018-11-01T12:16:28.611Z,4.10
2018-11-01T12:18:58.991Z,4.60
2018-11-01T12:21:26.894Z,4.17
2018-11-01T12:23:54.754Z,4.63
2018-11-01T12:26:23.320Z,4.90
2018-11-01T12:28:52.213Z,4.67
2018-11-01T12:31:21.925Z,4.20
2018-11-01T12:33:53.825Z,4.07
2018-11-01T12:36:23.513Z,4.57
2018-11-01T12:38:56.893Z,4.67
2018-11-01T12:41:26.694Z,6.20
2018-11-01T12:43:55.433Z,5.43
2018-11-01T12:46:24.099Z,5.30
2018-11-01T12:48:52.887Z,4.40
2018-11-01T12:51:22.973Z,5.00
2018-11-01T12:53:52.764Z,4.10
2018-11-01T12:56:21.012Z,4.07
2018-11-01T12:58:48.751Z,4.57
2018-11-01T13:01:16.582Z,4.87
2018-11-01T13:03:44.334Z,4.23
2018-11-01T13:06:12.097Z,6.20
2018-11-01T13:08:39.850Z,4.77
2018-11-01T13:11:07.609Z,5.17
2018-11-01T13:13:35.467Z,4.43
2018-11-01T13:16:03.190Z,4.87
2018-11-01T13:18:31.684Z,5.80
2018-11-01T13:20:59.609Z,4.80
2018-11-01T13:23:27.296Z,4.40
2018-11-01T13:25:55.067Z,4.40
2018-11-01T13:28:22.802Z,4.63
2018-11-01T13:30:50.602Z,5.73
2018-11-01T13:33:19.332Z,4.70
2018-11-01T13:35:47.142Z,4.83
2018-11-01T13:38:14.915Z,5.90
2018-11-01T13:40:43.531Z,4.87
2018-11-01T13:43:10.908Z,4.87
2018-11-01T13:45:38.865Z,5.03
2018-11-01T13:48:07.025Z,5.13
2018-11-01T13:50:34.661Z,6.13
2018-11-01T13:53:02.800Z,5.73
2018-11-01T13:55:30.554Z,5.53
2018-11-01T13:57:59.081Z,5.13
2018-11-01T14:00:27.744Z,6.23
2018-11-01T14:02:55.380Z,5.90
2018-11-01T14:05:23.205Z,5.30
2018-11-01T14:07:50.962Z,6.07
2018-11-01T14:10:18.794Z,9.83
2018-11-01T14:12:46.636Z,7.63
2018-11-01T14:15:15.639Z,5.90
2018-11-01T14:17:43.355Z,5.43
2018-11-01T14:20:12.279Z,5.87
2018-11-01T14:22:40.933Z,7.13
2018-11-01T14:25:09.769Z,5.17
2018-11-01T14:27:37.603Z,5.27
2018-11-01T14:30:08.338Z,6.07
2018-11-01T14:32:36.197Z,5.80
2018-11-01T14:35:06.000Z,6.50
2018-11-01T14:37:34.663Z,5.57
2018-11-01T14:40:02.640Z,7.27
2018-11-01T14:42:30.412Z,5.90
2018-11-01T14:44:59.616Z,8.67
2018-11-01T14:47:27.485Z,6.40
2018-11-01T14:49:55.286Z,7.27
2018-11-01T14:52:23.537Z,7.37
2018-11-01T14:54:51.943Z,6.50
2018-11-01T14:57:20.017Z,7.07
2018-11-01T14:59:48.102Z,7.43
2018-11-01T15:02:15.192Z,8.03
2018-11-01T15:04:42.939Z,8.30
2018-11-01T15:07:10.842Z,6.77
2018-11-01T15:09:38.987Z,7.83
2018-11-01T15:12:08.182Z,6.97
2018-11-01T15:14:40.690Z,6.93
2018-11-01T15:17:08.534Z,7.03
2018-11-01T15:19:37.125Z,8.80
2018-11-01T15:22:06.287Z,7.23
2018-11-01T15:24:34.624Z,7.60
2018-11-01T15:27:02.507Z,8.40
2018-11-01T15:29:30.269Z,7.03
2018-11-01T15:32:03.008Z,8.93
2018-11-01T15:34:32.476Z,9.00
2018-11-01T15:37:00.409Z,11.03
2018-11-01T15:39:28.132Z,8.37
2018-11-01T15:41:57.146Z,9.07
2018-11-01T15:44:25.962Z,8.10
2018-11-01T15:46:53.683Z,9.67
2018-11-01T15:49:24.557Z,10.20
2018-11-01T15:51:52.511Z,8.93
2018-11-01T15:54:20.407Z,16.97
2018-11-01T15:56:48.781Z,18.53
2018-11-01T15:59:16.560Z,19.60
2018-11-01T16:01:44.370Z,11.33
2018-11-01T16:04:12.240Z,27.90
2018-11-01T16:06:40.369Z,12.73
2018-11-01T16:09:10.107Z,11.70
2018-11-01T16:11:38.553Z,19.47
2018-11-01T16:14:06.388Z,13.50
2018-11-01T16:16:35.008Z,23.23
2018-11-01T16:19:02.872Z,20.80
2018-11-01T16:21:31.349Z,13.63
2018-11-01T16:23:59.756Z,20.53
2018-11-01T16:26:29.797Z,28.53
2018-11-01T16:28:57.853Z,17.97
2018-11-01T16:31:25.648Z,19.07
2018-11-01T16:33:53.400Z,17.40
2018-11-01T16:36:21.411Z,12.57
2018-11-01T16:38:49.666Z,13.10
2018-11-01T16:41:18.645Z,12.73
2018-11-01T16:43:47.411Z,14.80
2018-11-01T16:46:15.870Z,10.40
2018-11-01T16:48:44.205Z,12.67
2018-11-01T16:51:12.114Z,11.73
2018-11-01T16:53:40.366Z,10.70
2018-11-01T16:56:08.766Z,11.07
2018-11-01T16:58:36.787Z,11.07
2018-11-01T17:01:05.736Z,12.70
2018-11-01T17:03:33.574Z,12.60
2018-11-01T17:06:01.635Z,11.70
2018-11-01T17:08:34.308Z,11.50
2018-11-01T17:11:03.136Z,13.03
2018-11-01T17:13:32.726Z,12.97
2018-11-01T17:16:03.301Z,11.97
2018-11-01T17:18:33.358Z,14.07
2018-11-01T17:21:02.286Z,13.27
2018-11-01T17:23:30.725Z,15.07
2018-11-01T17:25:58.797Z,13.03
2018-11-01T17:28:27.333Z,12.53
2018-11-01T17:30:55.113Z,13.10
2018-11-01T17:33:23.926Z,13.53
2018-11-01T17:35:52.561Z,13.03
2018-11-01T17:38:21.084Z,13.93
2018-11-01T17:40:49.777Z,13.30
2018-11-01T17:43:17.687Z,11.60
2018-11-01T17:45:45.515Z,12.93
2018-11-01T17:48:16.424Z,12.40
2018-11-01T17:50:44.328Z,12.70
2018-11-01T17:53:12.241Z,11.70
2018-11-01T17:55:41.078Z,12.40
2018-11-01T17:58:09.224Z,11.43
2018-11-01T18:00:37.231Z,13.73
2018-11-01T18:03:05.987Z,12.47
2018-11-01T18:05:35.497Z,11.40
2018-11-01T18:08:05.436Z,10.87
2018-11-01T18:10:33.176Z,12.67
2018-11-01T18:13:01.029Z,11.50
2018-11-01T18:15:30.959Z,11.67
2018-11-01T18:17:58.972Z,9.80
2018-11-01T18:20:27.517Z,12.13
2018-11-01T18:22:55.148Z,15.17
2018-11-01T18:25:23.122Z,9.97
2018-11-01T18:27:50.846Z,12.23
2018-11-01T18:30:18.758Z,11.57
2018-11-01T18:32:46.762Z,11.83
2018-11-01T18:35:14.515Z,11.90
2018-11-01T18:37:42.679Z,10.50
2018-11-01T18:40:13.507Z,11.13
2018-11-01T18:42:41.469Z,11.23
2018-11-01T18:45:12.631Z,12.83
2018-11-01T18:47:41.164Z,9.90
2018-11-01T18:50:10.806Z,9.37
2018-11-01T18:52:38.698Z,9.00
2018-11-01T18:55:07.669Z,10.53
2018-11-01T18:57:35.411Z,14.67
2018-11-01T19:00:03.927Z,10.43
2018-11-01T19:02:31.644Z,11.50
2018-11-01T19:04:59.552Z,8.83
2018-11-01T19:07:27.353Z,8.70
2018-11-01T19:09:55.231Z,8.63
2018-11-01T19:12:22.973Z,8.83
2018-11-01T19:14:51.067Z,8.80
2018-11-01T19:17:19.112Z,8.70
2018-11-01T19:19:49.044Z,8.70
2018-11-01T19:22:16.754Z,7.90
2018-11-01T19:24:44.678Z,8.37
2018-11-01T19:27:12.817Z,8.23
2018-11-01T19:29:40.685Z,8.07
2018-11-01T19:32:08.645Z,7.70
2018-11-01T19:34:36.997Z,7.53
2018-11-01T19:37:04.802Z,12.13
2018-11-01T19:39:32.879Z,9.23
2018-11-01T19:42:00.730Z,7.93
2018-11-01T19:44:28.738Z,7.50
2018-11-01T19:46:56.450Z,8.87
2018-11-01T19:49:24.178Z,7.70
2018-11-01T19:51:52.012Z,7.90
2018-11-01T19:54:19.958Z,9.57
2018-11-01T19:56:47.682Z,10.03
2018-11-01T19:59:15.474Z,9.07
2018-11-01T20:01:43.231Z,7.57
2018-11-01T20:04:11.080Z,8.67
2018-11-01T20:06:39.022Z,8.93
2018-11-01T20:09:08.310Z,7.90
2018-11-01T20:11:36.577Z,8.10
2018-11-01T20:14:05.073Z,8.07
2018-11-01T20:16:33.034Z,7.73
2018-11-01T20:19:01.263Z,9.13
2018-11-01T20:21:29.054Z,7.47
2018-11-01T20:23:57.100Z,8.03
2018-11-01T20:26:25.017Z,8.17
2018-11-01T20:28:53.175Z,7.53
2018-11-01T20:31:26.831Z,10.70
2018-11-01T20:33:54.673Z,8.30
2018-11-01T20:36:22.566Z,8.03
2018-11-01T20:38:50.785Z,9.47
2018-11-01T20:41:18.735Z,8.23
2018-11-01T20:43:46.927Z,7.53
2018-11-01T20:46:15.139Z,7.63
2018-11-01T20:48:43.962Z,7.70
2018-11-01T20:51:12.106Z,7.47
2018-11-01T20:53:41.253Z,8.07
2018-11-01T20:56:08.994Z,7.83
2018-11-01T20:58:36.840Z,9.47
2018-11-01T21:01:04.873Z,9.47
2018-11-01T21:03:32.953Z,8.67
2018-11-01T21:06:00.647Z,8.00
2018-11-01T21:08:28.667Z,8.67
2018-11-01T21:10:56.945Z,8.20
2018-11-01T21:13:24.800Z,8.23
2018-11-01T21:15:52.698Z,10.07
2018-11-01T21:18:23.430Z,11.33
2018-11-01T21:20:51.566Z,10.43
2018-11-01T21:23:19.500Z,9.77
2018-11-01T21:25:48.001Z,10.07
2018-11-01T21:28:15.872Z,10.10
2018-11-01T21:30:44.360Z,10.10
2018-11-01T21:33:13.255Z,9.83
2018-11-01T21:35:41.692Z,9.60
2018-11-01T21:38:09.910Z,10.37
2018-11-01T21:40:37.888Z,9.40
2018-11-01T21:43:05.845Z,10.57
2018-11-01T21:45:33.999Z,9.77
2018-11-01T21:48:02.118Z,10.90
2018-11-01T21:50:30.006Z,10.83
2018-11-01T21:52:58.984Z,11.27
2018-11-01T21:55:27.273Z,13.43
2018-11-01T21:57:55.072Z,10.93
2018-11-01T22:00:24.046Z,10.73
2018-11-01T22:02:52.341Z,10.90
2018-11-01T22:05:20.569Z,13.80
2018-11-01T22:07:48.535Z,11.30
2018-11-01T22:10:16.313Z,13.77
2018-11-01T22:12:44.679Z,12.60
2018-11-01T22:15:12.725Z,11.67
2018-11-01T22:17:41.333Z,11.17
2018-11-01T22:20:10.195Z,13.87
2018-11-01T22:22:38.575Z,13.50
2018-11-01T22:25:07.157Z,12.80
2018-11-01T22:27:35.541Z,12.43
2018-11-01T22:30:04.141Z,13.27
2018-11-01T22:32:32.026Z,12.43
2018-11-01T22:35:01.066Z,12.00
2018-11-01T22:37:29.101Z,14.40
2018-11-01T22:39:57.111Z,11.80
2018-11-01T22:42:25.133Z,13.67
2018-11-01T22:44:53.101Z,11.97
2018-11-01T22:47:20.846Z,11.00
2018-11-01T22:49:48.727Z,11.83
2018-11-01T22:52:17.907Z,13.27
2018-11-01T22:54:47.238Z,11.97
2018-11-01T22:57:15.434Z,12.30
2018-11-01T22:59:44.192Z,12.43
2018-11-01T23:02:12.608Z,12.10
2018-11-01T23:04:41.145Z,13.57
2018-11-01T23:07:09.409Z,13.33
2018-11-01T23:09:37.454Z,13.90
2018-11-01T23:12:05.998Z,12.53
2018-11-01T23:14:33.789Z,12.57
2018-11-01T23:17:01.664Z,14.40
2018-11-01T23:19:29.852Z,11.93
2018-11-01T23:21:57.676Z,12.33
2018-11-01T23:24:25.764Z,12.07
2018-11-01T23:26:54.965Z,10.27
2018-11-01T23:29:24.998Z,10.57
2018-11-01T23:31:53.065Z,10.60
2018-11-01T23:34:20.990Z,9.33
2018-11-01T23:36:54.602Z,9.47
2018-11-01T23:39:28.377Z,7.97
2018-11-01T23:42:02.030Z,7.43
2018-11-01T23:44:35.532Z,6.97
2018-11-01T23:47:09.168Z,7.40
2018-11-01T23:49:56.827Z,6.30
2018-11-01T23:52:26.262Z,6.97
2018-11-01T23:54:54.373Z,5.73
2018-11-01T23:57:22.519Z,5.93
2018-11-01T23:59:51.831Z,5.87
